sensor_id;sensor_type;location;lat;lon;timestamp;pressure;altitude;pressure_sealevel;temperature;humidity
7333;BME280;3707;43.618;25.342;2023-04-20T00:00:20;99638.38;;;13.15;100.00
7333;BME280;3707;43.618;25.342;2023-04-20T00:02:47;99696.44;;;13.45;100.00
7333;BME280;3707;43.618;25.342;2023-04-20T00:05:14;99712.88;;;13.65;100.00
7333;BME280;3707;43.618;25.342;2023-04-20T00:07:41;99720.66;;;13.68;100.00
7333;BME280;3707;43.618;25.342;2023-04-20T00:10:09;99723.25;;;13.66;100.00
7333;BME280;3707;43.618;25.342;2023-04-20T00:12:36;99718.97;;;13.61;100.00
7333;BME280;3707;43.618;25.342;2023-04-20T00:15:04;99714.56;;;13.70;100.00
7333;BME280;3707;43.618;25.342;2023-04-20T00:17:31;99716.34;;;13.64;100.00
7333;BME280;3707;43.618;25.342;2023-04-20T00:19:58;99715.47;;;13.69;100.00
7333;BME280;3707;43.618;25.342;2023-04-20T00:22:24;99712.84;;;13.66;100.00
7333;BME280;3707;43.618;25.342;2023-04-20T00:24:52;99721.53;;;13.71;100.00
7333;BME280;3707;43.618;25.342;2023-04-20T00:27:21;99712.00;;;13.63;100.00
7333;BME280;3707;43.618;25.342;2023-04-20T00:29:47;99717.19;;;13.63;100.00
7333;BME280;3707;43.618;25.342;2023-04-20T00:32:14;99711.16;;;13.53;100.00
7333;BME280;3707;43.618;25.342;2023-04-20T00:34:41;99715.50;;;13.57;100.00
7333;BME280;3707;43.618;25.342;2023-04-20T00:37:07;99712.91;;;13.59;100.00
7333;BME280;3707;43.618;25.342;2023-04-20T00:39:34;99717.25;;;13.54;100.00
7333;BME280;3707;43.618;25.342;2023-04-20T00:42:04;99706.84;;;13.51;100.00
7333;BME280;3707;43.618;25.342;2023-04-20T00:44:33;99710.28;;;13.53;100.00
7333;BME280;3707;43.618;25.342;2023-04-20T00:47:00;99708.56;;;13.46;100.00
7333;BME280;3707;43.618;25.342;2023-04-20T00:49:28;99698.22;;;13.24;100.00
7333;BME280;3707;43.618;25.342;2023-04-20T00:51:55;99706.00;;;13.38;100.00
7333;BME280;3707;43.618;25.342;2023-04-20T00:54:22;99712.06;;;13.41;100.00
7333;BME280;3707;43.618;25.342;2023-04-20T00:56:51;99686.91;;;13.37;100.00
7333;BME280;3707;43.618;25.342;2023-04-20T00:59:18;99703.41;;;13.41;100.00
7333;BME280;3707;43.618;25.342;2023-04-20T01:01:47;99705.13;;;13.42;100.00
7333;BME280;3707;43.618;25.342;2023-04-20T01:04:14;99708.63;;;13.33;100.00
7333;BME280;3707;43.618;25.342;2023-04-20T01:06:41;99685.25;;;13.12;100.00
7333;BME280;3707;43.618;25.342;2023-04-20T01:09:07;99704.31;;;13.14;100.00
7333;BME280;3707;43.618;25.342;2023-04-20T01:11:36;99707.75;;;13.03;100.00
7333;BME280;3707;43.618;25.342;2023-04-20T01:14:02;99703.44;;;13.09;100.00
7333;BME280;3707;43.618;25.342;2023-04-20T01:16:29;99707.78;;;13.13;100.00
7333;BME280;3707;43.618;25.342;2023-04-20T01:19:00;99709.50;;;13.20;100.00
7333;BME280;3707;43.618;25.342;2023-04-20T01:21:27;99710.34;;;13.06;100.00
7333;BME280;3707;43.618;25.342;2023-04-20T01:23:55;99692.16;;;13.00;100.00
7333;BME280;3707;43.618;25.342;2023-04-20T01:26:23;99681.75;;;12.98;100.00
7333;BME280;3707;43.618;25.342;2023-04-20T01:28:50;99706.03;;;13.00;100.00
7333;BME280;3707;43.618;25.342;2023-04-20T01:31:17;99702.56;;;12.89;100.00
7333;BME280;3707;43.618;25.342;2023-04-20T01:33:43;99698.22;;;12.85;100.00
7333;BME280;3707;43.618;25.342;2023-04-20T01:36:11;99706.03;;;12.89;100.00
7333;BME280;3707;43.618;25.342;2023-04-20T01:38:38;99677.41;;;12.77;100.00
7333;BME280;3707;43.618;25.342;2023-04-20T01:41:07;99681.75;;;12.75;100.00
7333;BME280;3707;43.618;25.342;2023-04-20T01:43:35;99704.28;;;12.88;100.00
7333;BME280;3707;43.618;25.342;2023-04-20T01:46:02;99615.00;;;12.38;100.00
7333;BME280;3707;43.618;25.342;2023-04-20T01:48:29;99682.63;;;12.82;100.00
7333;BME280;3707;43.618;25.342;2023-04-20T01:50:56;99702.56;;;12.84;100.00
7333;BME280;3707;43.618;25.342;2023-04-20T01:53:23;99705.16;;;12.71;100.00
7333;BME280;3707;43.618;25.342;2023-04-20T01:55:50;99701.69;;;12.67;100.00
7333;BME280;3707;43.618;25.342;2023-04-20T01:58:19;99703.44;;;12.76;100.00
7333;BME280;3707;43.618;25.342;2023-04-20T02:00:45;99685.22;;;12.61;100.00
7333;BME280;3707;43.618;25.342;2023-04-20T02:03:12;99694.75;;;12.65;100.00
7333;BME280;3707;43.618;25.342;2023-04-20T02:05:39;99666.16;;;12.51;100.00
7333;BME280;3707;43.618;25.342;2023-04-20T02:08:06;99688.69;;;12.55;100.00
7333;BME280;3707;43.618;25.342;2023-04-20T02:10:33;99686.09;;;12.51;100.00
7333;BME280;3707;43.618;25.342;2023-04-20T02:12:59;99677.41;;;12.67;100.00
7333;BME280;3707;43.618;25.342;2023-04-20T02:15:28;99685.22;;;12.59;100.00
7333;BME280;3707;43.618;25.342;2023-04-20T02:17:55;99685.22;;;12.52;100.00
7333;BME280;3707;43.618;25.342;2023-04-20T02:20:22;99680.00;;;12.38;100.00
7333;BME280;3707;43.618;25.342;2023-04-20T02:22:49;99680.88;;;12.34;100.00
7333;BME280;3707;43.618;25.342;2023-04-20T02:25:16;99677.41;;;12.29;100.00
7333;BME280;3707;43.618;25.342;2023-04-20T02:27:43;99676.53;;;12.42;100.00
7333;BME280;3707;43.618;25.342;2023-04-20T02:30:10;99670.47;;;12.40;100.00
7333;BME280;3707;43.618;25.342;2023-04-20T02:32:38;99635.81;;;12.20;100.00
7333;BME280;3707;43.618;25.342;2023-04-20T02:35:05;99687.81;;;12.39;100.00
7333;BME280;3707;43.618;25.342;2023-04-20T02:37:33;99684.34;;;12.37;100.00
7333;BME280;3707;43.618;25.342;2023-04-20T02:40:00;99687.78;;;12.35;100.00
7333;BME280;3707;43.618;25.342;2023-04-20T02:42:26;99690.41;;;12.32;100.00
7333;BME280;3707;43.618;25.342;2023-04-20T02:44:53;99685.19;;;12.24;100.00
7333;BME280;3707;43.618;25.342;2023-04-20T02:47:20;99684.31;;;12.34;100.00
7333;BME280;3707;43.618;25.342;2023-04-20T02:49:48;99685.19;;;12.26;100.00
7333;BME280;3707;43.618;25.342;2023-04-20T02:52:15;99679.09;;;12.07;100.00
7333;BME280;3707;43.618;25.342;2023-04-20T02:54:42;99681.69;;;12.07;100.00
7333;BME280;3707;43.618;25.342;2023-04-20T02:57:08;99688.59;;;12.07;100.00
7333;BME280;3707;43.618;25.342;2023-04-20T02:59:36;99663.50;;;12.01;100.00
7333;BME280;3707;43.618;25.342;2023-04-20T03:02:03;99649.56;;;11.88;100.00
7333;BME280;3707;43.618;25.342;2023-04-20T03:04:30;99679.03;;;11.86;100.00
7333;BME280;3707;43.618;25.342;2023-04-20T03:06:58;99687.69;;;11.99;100.00
7333;BME280;3707;43.618;25.342;2023-04-20T03:09:25;99673.78;;;11.75;100.00
7333;BME280;3707;43.618;25.342;2023-04-20T03:11:52;99698.97;;;11.93;100.00
7333;BME280;3707;43.618;25.342;2023-04-20T03:14:19;99685.97;;;11.93;100.00
7333;BME280;3707;43.618;25.342;2023-04-20T03:16:46;99689.44;;;11.95;100.00
7333;BME280;3707;43.618;25.342;2023-04-20T03:19:13;99691.16;;;11.87;100.00
7333;BME280;3707;43.618;25.342;2023-04-20T03:21:39;99668.63;;;11.86;100.00
7333;BME280;3707;43.618;25.342;2023-04-20T03:24:08;99686.00;;;12.01;100.00
7333;BME280;3707;43.618;25.342;2023-04-20T03:26:34;99648.75;;;11.94;100.00
7333;BME280;3707;43.618;25.342;2023-04-20T03:29:01;99682.53;;;12.00;100.00
7333;BME280;3707;43.618;25.342;2023-04-20T03:31:28;99660.84;;;11.83;100.00
7333;BME280;3707;43.618;25.342;2023-04-20T03:33:55;99692.94;;;12.08;100.00
7333;BME280;3707;43.618;25.342;2023-04-20T03:36:22;99690.34;;;12.17;100.00
7333;BME280;3707;43.618;25.342;2023-04-20T03:38:49;99680.81;;;12.04;100.00
7333;BME280;3707;43.618;25.342;2023-04-20T03:41:17;99685.16;;;12.08;100.00
7333;BME280;3707;43.618;25.342;2023-04-20T03:43:43;99682.50;;;11.91;100.00
7333;BME280;3707;43.618;25.342;2023-04-20T03:46:10;99684.25;;;11.90;100.00
7333;BME280;3707;43.618;25.342;2023-04-20T03:48:37;99686.03;;;12.11;100.00
7333;BME280;3707;43.618;25.342;2023-04-20T03:51:04;99691.19;;;12.07;100.00
7333;BME280;3707;43.618;25.342;2023-04-20T03:53:31;99690.34;;;12.05;100.00
7333;BME280;3707;43.618;25.342;2023-04-20T03:55:57;99698.97;;;12.02;100.00
7333;BME280;3707;43.618;25.342;2023-04-20T03:58:26;99672.97;;;11.93;100.00
7333;BME280;3707;43.618;25.342;2023-04-20T04:01:00;99686.91;;;12.19;100.00
7333;BME280;3707;43.618;25.342;2023-04-20T04:03:27;99690.31;;;12.00;100.00
7333;BME280;3707;43.618;25.342;2023-04-20T04:05:54;99685.97;;;11.99;100.00
7333;BME280;3707;43.618;25.342;2023-04-20T04:08:21;99693.81;;;12.07;100.00
7333;BME280;3707;43.618;25.342;2023-04-20T04:10:47;99694.66;;;11.97;100.00
7333;BME280;3707;43.618;25.342;2023-04-20T04:13:14;99699.88;;;12.07;100.00
7333;BME280;3707;43.618;25.342;2023-04-20T04:15:42;99701.63;;;12.11;100.00
7333;BME280;3707;43.618;25.342;2023-04-20T04:18:09;99699.00;;;12.10;100.00
7333;BME280;3707;43.618;25.342;2023-04-20T04:20:36;99707.72;;;12.19;100.00
7333;BME280;3707;43.618;25.342;2023-04-20T04:23:02;99700.75;;;12.15;100.00
7333;BME280;3707;43.618;25.342;2023-04-20T04:25:29;99719.84;;;12.25;100.00
7333;BME280;3707;43.618;25.342;2023-04-20T04:27:56;99711.22;;;12.36;100.00
7333;BME280;3707;43.618;25.342;2023-04-20T04:30:24;99693.00;;;12.36;100.00
7333;BME280;3707;43.618;25.342;2023-04-20T04:32:53;99713.81;;;12.42;100.00
7333;BME280;3707;43.618;25.342;2023-04-20T04:35:20;99714.63;;;12.25;100.00
7333;BME280;3707;43.618;25.342;2023-04-20T04:37:47;99696.44;;;12.17;100.00
7333;BME280;3707;43.618;25.342;2023-04-20T04:40:14;99724.22;;;12.33;100.00
7333;BME280;3707;43.618;25.342;2023-04-20T04:42:40;99726.81;;;12.39;100.00
7333;BME280;3707;43.618;25.342;2023-04-20T04:45:10;99719.00;;;12.49;100.00
7333;BME280;3707;43.618;25.342;2023-04-20T04:47:38;99721.63;;;12.50;100.00
7333;BME280;3707;43.618;25.342;2023-04-20T04:50:07;99698.22;;;12.55;100.00
7333;BME280;3707;43.618;25.342;2023-04-20T04:52:35;99731.16;;;12.74;100.00
7333;BME280;3707;43.618;25.342;2023-04-20T04:55:02;99732.94;;;12.87;100.00
7333;BME280;3707;43.618;25.342;2023-04-20T04:57:32;99736.41;;;12.87;100.00
7333;BME280;3707;43.618;25.342;2023-04-20T04:59:59;99728.63;;;13.12;100.00
7333;BME280;3707;43.618;25.342;2023-04-20T05:02:26;99733.78;;;13.33;100.00
7333;BME280;3707;43.618;25.342;2023-04-20T05:04:53;99747.66;;;13.38;100.00
7333;BME280;3707;43.618;25.342;2023-04-20T05:07:21;99745.03;;;13.55;100.00
7333;BME280;3707;43.618;25.342;2023-04-20T05:09:49;99744.22;;;13.30;100.00
7333;BME280;3707;43.618;25.342;2023-04-20T05:12:15;99748.56;;;13.29;100.00
7333;BME280;3707;43.618;25.342;2023-04-20T05:14:42;99733.78;;;13.21;100.00
7333;BME280;3707;43.618;25.342;2023-04-20T05:17:10;99749.41;;;13.37;100.00
7333;BME280;3707;43.618;25.342;2023-04-20T05:19:36;99750.28;;;13.17;100.00
7333;BME280;3707;43.618;25.342;2023-04-20T05:22:03;99750.31;;;13.12;100.00
7333;BME280;3707;43.618;25.342;2023-04-20T05:24:31;99739.00;;;13.04;100.00
7333;BME280;3707;43.618;25.342;2023-04-20T05:26:58;99752.03;;;13.22;100.00
7333;BME280;3707;43.618;25.342;2023-04-20T05:29:25;99745.94;;;13.37;100.00
7333;BME280;3707;43.618;25.342;2023-04-20T05:31:52;99755.47;;;13.52;100.00
7333;BME280;3707;43.618;25.342;2023-04-20T05:34:19;99756.31;;;13.51;100.00
7333;BME280;3707;43.618;25.342;2023-04-20T05:36:46;99753.72;;;13.41;100.00
7333;BME280;3707;43.618;25.342;2023-04-20T05:39:13;99749.34;;;13.56;100.00
7333;BME280;3707;43.618;25.342;2023-04-20T05:41:41;99752.78;;;13.67;100.00
7333;BME280;3707;43.618;25.342;2023-04-20T05:44:08;99770.16;;;13.66;100.00
7333;BME280;3707;43.618;25.342;2023-04-20T05:46:34;99772.75;;;13.77;100.00
7333;BME280;3707;43.618;25.342;2023-04-20T05:49:01;99773.50;;;14.06;100.00
7333;BME280;3707;43.618;25.342;2023-04-20T05:51:28;99780.38;;;14.28;100.00
7333;BME280;3707;43.618;25.342;2023-04-20T05:53:58;99776.88;;;14.32;100.00
7333;BME280;3707;43.618;25.342;2023-04-20T05:56:25;99777.75;;;14.33;100.00
7333;BME280;3707;43.618;25.342;2023-04-20T05:58:54;99777.78;;;14.30;100.00
7333;BME280;3707;43.618;25.342;2023-04-20T06:01:21;99764.84;;;14.04;100.00
7333;BME280;3707;43.618;25.342;2023-04-20T06:03:48;99772.66;;;14.07;100.00
7333;BME280;3707;43.618;25.342;2023-04-20T06:06:15;99774.44;;;13.96;100.00
7333;BME280;3707;43.618;25.342;2023-04-20T06:08:42;99773.59;;;13.89;100.00
7333;BME280;3707;43.618;25.342;2023-04-20T06:11:08;99773.22;;;14.67;100.00
7333;BME280;3707;43.618;25.342;2023-04-20T06:13:35;99781.19;;;14.43;100.00
7333;BME280;3707;43.618;25.342;2023-04-20T06:16:04;99777.66;;;14.54;100.00
7333;BME280;3707;43.618;25.342;2023-04-20T06:18:33;99787.44;;;14.01;100.00
7333;BME280;3707;43.618;25.342;2023-04-20T06:21:01;99785.75;;;13.90;100.00
7333;BME280;3707;43.618;25.342;2023-04-20T06:23:28;99782.16;;;14.22;100.00
7333;BME280;3707;43.618;25.342;2023-04-20T06:25:55;99546.41;;;13.04;100.00
7333;BME280;3707;43.618;25.342;2023-04-20T06:28:21;99788.91;;;14.59;100.00
7333;BME280;3707;43.618;25.342;2023-04-20T06:30:48;99775.00;;;14.60;100.00
7333;BME280;3707;43.618;25.342;2023-04-20T06:33:16;99701.25;;;14.32;100.00
7333;BME280;3707;43.618;25.342;2023-04-20T06:54:07;99810.47;;;14.93;100.00
7333;BME280;3707;43.618;25.342;2023-04-20T06:56:34;99788.72;;;14.93;100.00
7333;BME280;3707;43.618;25.342;2023-04-20T06:59:01;99799.56;;;15.51;100.00
7333;BME280;3707;43.618;25.342;2023-04-20T07:01:28;99809.97;;;15.58;99.65
7333;BME280;3707;43.618;25.342;2023-04-20T07:03:55;99803.28;;;15.22;100.00
7333;BME280;3707;43.618;25.342;2023-04-20T07:06:21;99805.09;;;15.11;100.00
7333;BME280;3707;43.618;25.342;2023-04-20T07:08:49;99801.50;;;15.24;100.00
7333;BME280;3707;43.618;25.342;2023-04-20T07:11:17;99796.34;;;15.18;100.00
7333;BME280;3707;43.618;25.342;2023-04-20T07:13:44;99800.78;;;15.07;100.00
7333;BME280;3707;43.618;25.342;2023-04-20T07:16:11;99789.50;;;15.04;100.00
7333;BME280;3707;43.618;25.342;2023-04-20T07:18:38;99807.75;;;15.07;100.00
7333;BME280;3707;43.618;25.342;2023-04-20T11:53:51;99706.84;;;20.05;69.07
7333;BME280;3707;43.618;25.342;2023-04-20T11:56:18;99703.53;;;20.30;66.68
7333;BME280;3707;43.618;25.342;2023-04-20T11:58:45;99702.88;;;20.51;64.70
7333;BME280;3707;43.618;25.342;2023-04-20T12:01:12;99683.34;;;20.56;64.13
7333;BME280;3707;43.618;25.342;2023-04-20T12:03:41;99680.31;;;20.95;62.14
7333;BME280;3707;43.618;25.342;2023-04-20T12:06:07;99691.16;;;21.13;63.91
7333;BME280;3707;43.618;25.342;2023-04-20T12:08:34;99685.78;;;20.90;62.22
7333;BME280;3707;43.618;25.342;2023-04-20T12:11:03;99695.19;;;21.23;60.88
7333;BME280;3707;43.618;25.342;2023-04-20T12:13:30;99694.38;;;21.21;58.92
7333;BME280;3707;43.618;25.342;2023-04-20T12:15:56;99659.41;;;20.90;58.29
7333;BME280;3707;43.618;25.342;2023-04-20T12:18:23;99663.63;;;20.94;58.70
7333;BME280;3707;43.618;25.342;2023-04-20T12:20:50;99681.19;;;20.95;59.68
7333;BME280;3707;43.618;25.342;2023-04-20T12:23:17;99667.31;;;20.90;60.70
7333;BME280;3707;43.618;25.342;2023-04-20T12:25:43;99671.41;;;20.99;59.25
7333;BME280;3707;43.618;25.342;2023-04-20T12:28:12;99662.94;;;20.89;58.47
7333;BME280;3707;43.618;25.342;2023-04-20T12:30:39;99661.94;;;20.93;60.80
7333;BME280;3707;43.618;25.342;2023-04-20T12:33:06;99661.78;;;20.71;59.48
7333;BME280;3707;43.618;25.342;2023-04-20T12:35:33;99659.13;;;20.45;58.09
7333;BME280;3707;43.618;25.342;2023-04-20T12:38:00;99662.94;;;20.07;59.80
7333;BME280;3707;43.618;25.342;2023-04-20T12:40:26;99658.59;;;20.05;60.85
7333;BME280;3707;43.618;25.342;2023-04-20T12:42:53;99653.50;;;20.00;61.31
7333;BME280;3707;43.618;25.342;2023-04-20T12:45:22;99656.59;;;20.13;60.54
7333;BME280;3707;43.618;25.342;2023-04-20T12:47:48;99649.94;;;20.31;60.56
7333;BME280;3707;43.618;25.342;2023-04-20T12:50:15;99648.38;;;20.23;58.84
7333;BME280;3707;43.618;25.342;2023-04-20T12:52:42;99627.41;;;20.20;58.91
7333;BME280;3707;43.618;25.342;2023-04-20T12:55:09;99639.03;;;20.43;59.15
7333;BME280;3707;43.618;25.342;2023-04-20T12:57:36;99638.91;;;20.46;57.45
7333;BME280;3707;43.618;25.342;2023-04-20T13:00:05;99628.59;;;20.66;57.41
7333;BME280;3707;43.618;25.342;2023-04-20T13:02:33;99628.44;;;20.70;57.97
7333;BME280;3707;43.618;25.342;2023-04-20T13:05:00;99626.56;;;20.74;56.82
7333;BME280;3707;43.618;25.342;2023-04-20T13:07:27;99625.06;;;20.92;56.02
7333;BME280;3707;43.618;25.342;2023-04-20T13:09:54;99614.22;;;20.76;56.96
7333;BME280;3707;43.618;25.342;2023-04-20T13:12:21;99612.13;;;20.86;56.67
7333;BME280;3707;43.618;25.342;2023-04-20T13:14:47;99605.75;;;20.66;55.69
7333;BME280;3707;43.618;25.342;2023-04-20T13:17:14;99628.19;;;20.78;55.45
7333;BME280;3707;43.618;25.342;2023-04-20T13:19:44;99589.94;;;20.91;54.68
7333;BME280;3707;43.618;25.342;2023-04-20T13:22:11;99619.53;;;20.99;54.17
7333;BME280;3707;43.618;25.342;2023-04-20T13:24:38;99619.25;;;20.82;53.23
7333;BME280;3707;43.618;25.342;2023-04-20T13:27:04;99613.56;;;20.43;53.10
7333;BME280;3707;43.618;25.342;2023-04-20T13:29:31;99619.59;;;20.47;53.61
7333;BME280;3707;43.618;25.342;2023-04-20T13:31:58;99582.34;;;20.31;53.26
7333;BME280;3707;43.618;25.342;2023-04-20T13:34:25;99594.81;;;19.97;53.47
7333;BME280;3707;43.618;25.342;2023-04-20T13:36:53;99614.69;;;20.35;53.50
7333;BME280;3707;43.618;25.342;2023-04-20T13:39:21;99602.31;;;20.64;53.43
7333;BME280;3707;43.618;25.342;2023-04-20T13:41:47;99618.31;;;21.09;52.84
7333;BME280;3707;43.618;25.342;2023-04-20T13:44:14;99596.53;;;21.04;51.52
7333;BME280;3707;43.618;25.342;2023-04-20T13:46:41;99618.63;;;21.50;52.27
7333;BME280;3707;43.618;25.342;2023-04-20T13:49:09;99590.88;;;21.63;49.63
7333;BME280;3707;43.618;25.342;2023-04-20T13:51:36;99586.47;;;22.08;49.41
7333;BME280;3707;43.618;25.342;2023-04-20T13:54:04;99586.69;;;22.26;48.19
7333;BME280;3707;43.618;25.342;2023-04-20T13:56:31;99605.09;;;22.70;47.42
7333;BME280;3707;43.618;25.342;2023-04-20T13:58:58;99610.94;;;23.38;46.94
7333;BME280;3707;43.618;25.342;2023-04-20T14:01:24;99618.91;;;23.17;46.05
7333;BME280;3707;43.618;25.342;2023-04-20T14:03:51;99591.72;;;22.94;44.23
7333;BME280;3707;43.618;25.342;2023-04-20T14:06:18;99623.28;;;22.98;44.71
7333;BME280;3707;43.618;25.342;2023-04-20T14:08:45;99621.31;;;22.40;45.33
7333;BME280;3707;43.618;25.342;2023-04-20T14:11:13;99635.25;;;21.52;46.36
7333;BME280;3707;43.618;25.342;2023-04-20T14:13:40;99605.88;;;20.08;61.22
7333;BME280;3707;43.618;25.342;2023-04-20T14:16:08;99651.25;;;18.57;91.48
7333;BME280;3707;43.618;25.342;2023-04-20T14:18:35;99623.31;;;17.78;100.00
7333;BME280;3707;43.618;25.342;2023-04-20T14:21:02;99665.47;;;17.69;100.00
7333;BME280;3707;43.618;25.342;2023-04-20T14:23:29;99669.88;;;17.67;100.00
7333;BME280;3707;43.618;25.342;2023-04-20T14:25:56;99683.25;;;17.52;100.00
7333;BME280;3707;43.618;25.342;2023-04-20T14:28:24;99681.41;;;17.11;100.00
7333;BME280;3707;43.618;25.342;2023-04-20T14:30:51;99683.28;;;17.04;100.00
7333;BME280;3707;43.618;25.342;2023-04-20T14:33:18;99681.03;;;16.81;100.00
7333;BME280;3707;43.618;25.342;2023-04-20T14:35:45;99691.38;;;16.91;100.00
7333;BME280;3707;43.618;25.342;2023-04-20T14:38:12;99692.56;;;16.71;100.00
7333;BME280;3707;43.618;25.342;2023-04-20T14:40:39;99701.22;;;16.76;100.00
7333;BME280;3707;43.618;25.342;2023-04-20T14:43:06;99710.13;;;16.65;100.00
7333;BME280;3707;43.618;25.342;2023-04-20T14:45:34;99712.06;;;16.49;100.00
7333;BME280;3707;43.618;25.342;2023-04-20T14:48:00;99717.34;;;16.48;100.00
7333;BME280;3707;43.618;25.342;2023-04-20T14:50:27;99736.72;;;16.33;100.00
7333;BME280;3707;43.618;25.342;2023-04-20T14:52:56;99740.22;;;16.30;100.00
7333;BME280;3707;43.618;25.342;2023-04-20T14:55:23;99755.16;;;16.25;100.00
7333;BME280;3707;43.618;25.342;2023-04-20T14:57:52;99767.66;;;15.99;100.00
7333;BME280;3707;43.618;25.342;2023-04-20T15:00:19;99754.47;;;15.27;100.00
7333;BME280;3707;43.618;25.342;2023-04-20T15:02:49;99737.44;;;14.87;100.00
7333;BME280;3707;43.618;25.342;2023-04-20T15:05:16;99719.44;;;14.51;100.00
7333;BME280;3707;43.618;25.342;2023-04-20T15:07:43;99691.72;;;14.24;100.00
7333;BME280;3707;43.618;25.342;2023-04-20T15:10:10;99707.50;;;14.01;100.00
7333;BME280;3707;43.618;25.342;2023-04-20T15:12:37;99712.78;;;13.89;100.00
7333;BME280;3707;43.618;25.342;2023-04-20T15:15:05;99708.47;;;13.82;100.00
7333;BME280;3707;43.618;25.342;2023-04-20T15:17:32;99697.16;;;13.81;100.00
7333;BME280;3707;43.618;25.342;2023-04-20T15:20:00;99686.78;;;13.74;100.00
7333;BME280;3707;43.618;25.342;2023-04-20T15:22:27;99683.22;;;13.93;100.00
7333;BME280;3707;43.618;25.342;2023-04-20T15:24:55;99663.84;;;14.30;100.00
7333;BME280;3707;43.618;25.342;2023-04-20T15:27:22;99676.94;;;14.27;100.00
7333;BME280;3707;43.618;25.342;2023-04-20T15:29:48;99670.00;;;14.26;100.00
7333;BME280;3707;43.618;25.342;2023-04-20T15:32:15;99657.78;;;14.37;100.00
7333;BME280;3707;43.618;25.342;2023-04-20T15:34:42;99629.81;;;14.55;100.00
7333;BME280;3707;43.618;25.342;2023-04-20T15:37:10;99624.53;;;14.61;100.00
7333;BME280;3707;43.618;25.342;2023-04-20T15:39:37;99645.50;;;14.52;100.00
7333;BME280;3707;43.618;25.342;2023-04-20T15:42:04;99640.03;;;14.79;100.00
7333;BME280;3707;43.618;25.342;2023-04-20T15:44:30;99615.53;;;14.92;100.00
7333;BME280;3707;43.618;25.342;2023-04-20T15:46:57;99642.53;;;14.91;100.00
7333;BME280;3707;43.618;25.342;2023-04-20T15:49:24;99651.19;;;14.98;100.00
7333;BME280;3707;43.618;25.342;2023-04-20T15:51:51;99653.09;;;14.77;100.00
7333;BME280;3707;43.618;25.342;2023-04-20T15:54:19;99623.72;;;14.57;100.00
7333;BME280;3707;43.618;25.342;2023-04-20T15:56:48;99634.16;;;14.53;100.00
7333;BME280;3707;43.618;25.342;2023-04-20T15:59:15;99639.28;;;14.66;100.00
7333;BME280;3707;43.618;25.342;2023-04-20T16:01:42;99648.66;;;14.90;100.00
7333;BME280;3707;43.618;25.342;2023-04-20T16:04:08;99653.00;;;14.88;100.00
7333;BME280;3707;43.618;25.342;2023-04-20T16:06:35;99629.66;;;14.70;100.00
7333;BME280;3707;43.618;25.342;2023-04-20T16:09:02;99638.28;;;14.81;100.00
7333;BME280;3707;43.618;25.342;2023-04-20T16:11:30;99643.41;;;14.90;100.00
7333;BME280;3707;43.618;25.342;2023-04-20T16:13:58;99679.00;;;14.99;100.00
7333;BME280;3707;43.618;25.342;2023-04-20T16:16:25;99657.47;;;14.74;100.00
7333;BME280;3707;43.618;25.342;2023-04-20T16:18:52;99705.03;;;15.06;100.00
7333;BME280;3707;43.618;25.342;2023-04-20T16:21:19;99723.31;;;15.06;100.00
7333;BME280;3707;43.618;25.342;2023-04-20T16:23:50;99718.00;;;15.18;100.00
7333;BME280;3707;43.618;25.342;2023-04-20T16:26:17;99723.41;;;14.97;100.00
7333;BME280;3707;43.618;25.342;2023-04-20T16:28:45;99708.78;;;14.79;100.00
7333;BME280;3707;43.618;25.342;2023-04-20T16:31:12;99720.25;;;14.59;100.00
7333;BME280;3707;43.618;25.342;2023-04-20T16:33:38;99700.28;;;14.49;100.00
7333;BME280;3707;43.618;25.342;2023-04-20T16:36:05;99701.09;;;14.60;100.00
7333;BME280;3707;43.618;25.342;2023-04-20T16:38:32;99737.44;;;14.81;100.00
7333;BME280;3707;43.618;25.342;2023-04-20T16:40:59;99744.34;;;14.88;100.00
7333;BME280;3707;43.618;25.342;2023-04-20T16:43:26;99742.59;;;14.93;100.00
7333;BME280;3707;43.618;25.342;2023-04-20T16:45:54;99737.28;;;15.02;100.00
7333;BME280;3707;43.618;25.342;2023-04-20T16:48:21;99736.44;;;15.00;100.00
7333;BME280;3707;43.618;25.342;2023-04-20T16:50:48;99725.88;;;15.15;100.00
7333;BME280;3707;43.618;25.342;2023-04-20T16:53:15;99717.19;;;15.12;100.00
7333;BME280;3707;43.618;25.342;2023-04-20T16:55:41;99639.25;;;14.72;100.00
7333;BME280;3707;43.618;25.342;2023-04-20T16:58:08;99745.72;;;15.31;100.00
7333;BME280;3707;43.618;25.342;2023-04-20T17:00:35;99757.03;;;15.32;100.00
7333;BME280;3707;43.618;25.342;2023-04-20T17:03:03;99739.41;;;15.58;100.00
7333;BME280;3707;43.618;25.342;2023-04-20T17:05:36;99758.94;;;15.15;100.00
7333;BME280;3707;43.618;25.342;2023-04-20T17:08:03;99727.91;;;14.77;100.00
7333;BME280;3707;43.618;25.342;2023-04-20T17:10:30;99731.44;;;14.70;100.00
7333;BME280;3707;43.618;25.342;2023-04-20T17:12:57;99737.50;;;14.75;100.00
7333;BME280;3707;43.618;25.342;2023-04-20T17:15:24;99722.72;;;14.75;100.00
7333;BME280;3707;43.618;25.342;2023-04-20T17:17:51;99714.97;;;14.65;100.00
7333;BME280;3707;43.618;25.342;2023-04-20T17:20:19;99738.31;;;14.81;100.00
7333;BME280;3707;43.618;25.342;2023-04-20T17:22:46;99738.31;;;14.81;100.00
7333;BME280;3707;43.618;25.342;2023-04-20T17:25:13;99730.56;;;14.75;100.00
7333;BME280;3707;43.618;25.342;2023-04-20T17:27:40;99729.63;;;14.81;100.00
7333;BME280;3707;43.618;25.342;2023-04-20T17:30:08;99695.00;;;14.59;100.00
7333;BME280;3707;43.618;25.342;2023-04-20T17:32:35;99732.28;;;14.75;100.00
7333;BME280;3707;43.618;25.342;2023-04-20T17:35:01;99729.75;;;14.66;100.00
7333;BME280;3707;43.618;25.342;2023-04-20T17:37:30;99701.13;;;14.52;100.00
7333;BME280;3707;43.618;25.342;2023-04-20T17:39:56;99721.94;;;14.66;100.00
7333;BME280;3707;43.618;25.342;2023-04-20T17:42:23;99701.22;;;14.42;100.00
7333;BME280;3707;43.618;25.342;2023-04-20T17:44:50;99692.47;;;14.46;100.00
7333;BME280;3707;43.618;25.342;2023-04-20T17:47:17;99670.75;;;14.48;100.00
7333;BME280;3707;43.618;25.342;2023-04-20T17:49:43;99680.28;;;14.51;100.00
7333;BME280;3707;43.618;25.342;2023-04-20T17:52:10;99685.56;;;14.42;100.00